sensor_id;sensor_type;location;lat;lon;timestamp;P1;durP1;ratioP1;P2;durP2;ratioP2
75506;SDS011;64086;43.220;27.878;2024-03-17T00:01:00;39.63;;;23.33;;
75506;SDS011;64086;43.220;27.878;2024-03-17T00:03:28;36.92;;;22.90;;
75506;SDS011;64086;43.220;27.878;2024-03-17T00:05:55;39.05;;;24.05;;
75506;SDS011;64086;43.220;27.878;2024-03-17T00:08:22;38.45;;;23.00;;
75506;SDS011;64086;43.220;27.878;2024-03-17T00:10:49;39.78;;;24.10;;
75506;SDS011;64086;43.220;27.878;2024-03-17T00:13:18;36.85;;;23.05;;
75506;SDS011;64086;43.220;27.878;2024-03-17T00:15:44;38.50;;;23.83;;
75506;SDS011;64086;43.220;27.878;2024-03-17T00:18:10;36.08;;;23.88;;
75506;SDS011;64086;43.220;27.878;2024-03-17T00:20:36;37.20;;;24.25;;
75506;SDS011;64086;43.220;27.878;2024-03-17T00:23:02;40.55;;;24.42;;
75506;SDS011;64086;43.220;27.878;2024-03-17T00:25:28;38.80;;;25.42;;
75506;SDS011;64086;43.220;27.878;2024-03-17T00:27:53;44.42;;;25.48;;
75506;SDS011;64086;43.220;27.878;2024-03-17T00:30:22;40.28;;;23.80;;
75506;SDS011;64086;43.220;27.878;2024-03-17T00:32:48;36.05;;;23.15;;
75506;SDS011;64086;43.220;27.878;2024-03-17T00:35:13;40.83;;;25.00;;
75506;SDS011;64086;43.220;27.878;2024-03-17T00:37:45;41.50;;;24.73;;
75506;SDS011;64086;43.220;27.878;2024-03-17T00:40:14;39.90;;;24.10;;
75506;SDS011;64086;43.220;27.878;2024-03-17T00:42:41;38.38;;;23.85;;
75506;SDS011;64086;43.220;27.878;2024-03-17T00:45:07;38.63;;;23.55;;
75506;SDS011;64086;43.220;27.878;2024-03-17T00:47:33;38.58;;;24.42;;
75506;SDS011;64086;43.220;27.878;2024-03-17T00:49:58;43.13;;;24.83;;
75506;SDS011;64086;43.220;27.878;2024-03-17T00:52:24;39.22;;;25.33;;
75506;SDS011;64086;43.220;27.878;2024-03-17T00:54:49;41.38;;;25.77;;
75506;SDS011;64086;43.220;27.878;2024-03-17T00:57:15;41.58;;;25.42;;
75506;SDS011;64086;43.220;27.878;2024-03-17T00:59:41;35.70;;;25.15;;
75506;SDS011;64086;43.220;27.878;2024-03-17T01:02:09;44.22;;;29.88;;
75506;SDS011;64086;43.220;27.878;2024-03-17T01:04:37;45.20;;;30.23;;
75506;SDS011;64086;43.220;27.878;2024-03-17T01:07:02;44.78;;;30.15;;
75506;SDS011;64086;43.220;27.878;2024-03-17T01:09:28;45.72;;;29.35;;
75506;SDS011;64086;43.220;27.878;2024-03-17T01:11:54;42.40;;;27.95;;
75506;SDS011;64086;43.220;27.878;2024-03-17T01:14:19;43.72;;;27.52;;
75506;SDS011;64086;43.220;27.878;2024-03-17T01:16:44;44.28;;;28.25;;
75506;SDS011;64086;43.220;27.878;2024-03-17T01:19:10;46.08;;;30.15;;
75506;SDS011;64086;43.220;27.878;2024-03-17T01:21:36;44.53;;;28.45;;
75506;SDS011;64086;43.220;27.878;2024-03-17T01:24:02;44.95;;;28.88;;
75506;SDS011;64086;43.220;27.878;2024-03-17T01:26:28;40.45;;;26.48;;
75506;SDS011;64086;43.220;27.878;2024-03-17T01:28:53;44.25;;;29.02;;
75506;SDS011;64086;43.220;27.878;2024-03-17T01:31:19;46.10;;;30.08;;
75506;SDS011;64086;43.220;27.878;2024-03-17T01:33:44;42.33;;;27.70;;
75506;SDS011;64086;43.220;27.878;2024-03-17T01:36:11;41.83;;;25.70;;
75506;SDS011;64086;43.220;27.878;2024-03-17T01:38:37;40.92;;;25.08;;
75506;SDS011;64086;43.220;27.878;2024-03-17T01:41:03;36.97;;;24.45;;
75506;SDS011;64086;43.220;27.878;2024-03-17T01:43:29;40.35;;;25.30;;
75506;SDS011;64086;43.220;27.878;2024-03-17T01:45:55;39.70;;;24.73;;
75506;SDS011;64086;43.220;27.878;2024-03-17T01:48:22;39.95;;;25.40;;
75506;SDS011;64086;43.220;27.878;2024-03-17T01:50:48;41.00;;;24.40;;
75506;SDS011;64086;43.220;27.878;2024-03-17T01:53:14;44.65;;;25.60;;
75506;SDS011;64086;43.220;27.878;2024-03-17T01:55:42;36.97;;;23.75;;
75506;SDS011;64086;43.220;27.878;2024-03-17T01:58:08;36.13;;;23.50;;
75506;SDS011;64086;43.220;27.878;2024-03-17T02:00:38;35.40;;;22.38;;
75506;SDS011;64086;43.220;27.878;2024-03-17T02:03:08;35.33;;;22.65;;
75506;SDS011;64086;43.220;27.878;2024-03-17T02:05:37;36.90;;;22.08;;
75506;SDS011;64086;43.220;27.878;2024-03-17T02:08:05;37.08;;;22.42;;
75506;SDS011;64086;43.220;27.878;2024-03-17T02:10:34;39.25;;;24.48;;
75506;SDS011;64086;43.220;27.878;2024-03-17T02:13:00;40.53;;;25.80;;
75506;SDS011;64086;43.220;27.878;2024-03-17T02:15:26;46.55;;;29.58;;
75506;SDS011;64086;43.220;27.878;2024-03-17T02:17:52;48.03;;;30.77;;
75506;SDS011;64086;43.220;27.878;2024-03-17T02:20:17;50.97;;;31.98;;
75506;SDS011;64086;43.220;27.878;2024-03-17T02:22:43;48.35;;;31.92;;
75506;SDS011;64086;43.220;27.878;2024-03-17T02:25:08;52.10;;;32.28;;
75506;SDS011;64086;43.220;27.878;2024-03-17T02:27:37;44.33;;;29.98;;
75506;SDS011;64086;43.220;27.878;2024-03-17T02:30:03;47.65;;;30.45;;
75506;SDS011;64086;43.220;27.878;2024-03-17T02:32:34;46.10;;;29.65;;
75506;SDS011;64086;43.220;27.878;2024-03-17T02:35:02;47.90;;;32.05;;
75506;SDS011;64086;43.220;27.878;2024-03-17T02:37:30;37.05;;;23.95;;
75506;SDS011;64086;43.220;27.878;2024-03-17T02:39:55;38.30;;;24.35;;
75506;SDS011;64086;43.220;27.878;2024-03-17T02:42:21;40.13;;;25.00;;
75506;SDS011;64086;43.220;27.878;2024-03-17T02:44:46;39.97;;;25.08;;
75506;SDS011;64086;43.220;27.878;2024-03-17T02:47:12;36.20;;;23.00;;
75506;SDS011;64086;43.220;27.878;2024-03-17T02:49:39;35.70;;;22.70;;
75506;SDS011;64086;43.220;27.878;2024-03-17T02:52:08;35.10;;;20.52;;
75506;SDS011;64086;43.220;27.878;2024-03-17T02:54:37;33.20;;;20.05;;
75506;SDS011;64086;43.220;27.878;2024-03-17T02:57:03;30.40;;;19.23;;
75506;SDS011;64086;43.220;27.878;2024-03-17T02:59:29;30.50;;;18.92;;
75506;SDS011;64086;43.220;27.878;2024-03-17T03:01:56;32.60;;;18.70;;
75506;SDS011;64086;43.220;27.878;2024-03-17T03:04:21;30.30;;;19.00;;
75506;SDS011;64086;43.220;27.878;2024-03-17T03:06:47;28.52;;;18.10;;
75506;SDS011;64086;43.220;27.878;2024-03-17T03:09:13;29.60;;;18.27;;
75506;SDS011;64086;43.220;27.878;2024-03-17T03:11:43;27.52;;;18.05;;
75506;SDS011;64086;43.220;27.878;2024-03-17T03:14:08;29.92;;;18.15;;
75506;SDS011;64086;43.220;27.878;2024-03-17T03:16:34;32.00;;;18.08;;
75506;SDS011;64086;43.220;27.878;2024-03-17T03:18:59;27.98;;;16.48;;
75506;SDS011;64086;43.220;27.878;2024-03-17T03:21:25;30.73;;;16.67;;
75506;SDS011;64086;43.220;27.878;2024-03-17T03:23:51;28.35;;;16.17;;
75506;SDS011;64086;43.220;27.878;2024-03-17T03:26:17;30.13;;;18.20;;
75506;SDS011;64086;43.220;27.878;2024-03-17T03:28:43;32.42;;;18.30;;
75506;SDS011;64086;43.220;27.878;2024-03-17T03:31:11;32.65;;;18.13;;
75506;SDS011;64086;43.220;27.878;2024-03-17T03:33:38;31.55;;;18.02;;
75506;SDS011;64086;43.220;27.878;2024-03-17T03:36:09;39.75;;;18.13;;
75506;SDS011;64086;43.220;27.878;2024-03-17T03:38:38;40.53;;;17.90;;
75506;SDS011;64086;43.220;27.878;2024-03-17T03:41:07;33.33;;;17.38;;
75506;SDS011;64086;43.220;27.878;2024-03-17T03:43:39;25.48;;;15.25;;
75506;SDS011;64086;43.220;27.878;2024-03-17T03:46:06;24.33;;;15.25;;
75506;SDS011;64086;43.220;27.878;2024-03-17T03:48:32;26.15;;;16.15;;
75506;SDS011;64086;43.220;27.878;2024-03-17T03:50:59;24.88;;;15.07;;
75506;SDS011;64086;43.220;27.878;2024-03-17T03:53:28;24.60;;;14.98;;
75506;SDS011;64086;43.220;27.878;2024-03-17T03:55:54;23.52;;;15.18;;
75506;SDS011;64086;43.220;27.878;2024-03-17T03:58:19;21.35;;;14.30;;
75506;SDS011;64086;43.220;27.878;2024-03-17T04:00:46;22.80;;;14.57;;
75506;SDS011;64086;43.220;27.878;2024-03-17T04:03:11;21.73;;;14.98;;
75506;SDS011;64086;43.220;27.878;2024-03-17T04:05:37;19.15;;;13.70;;
75506;SDS011;64086;43.220;27.878;2024-03-17T04:08:02;18.95;;;13.25;;
75506;SDS011;64086;43.220;27.878;2024-03-17T04:10:28;19.88;;;13.43;;
75506;SDS011;64086;43.220;27.878;2024-03-17T04:12:53;20.02;;;13.60;;
75506;SDS011;64086;43.220;27.878;2024-03-17T04:15:19;21.65;;;14.10;;
75506;SDS011;64086;43.220;27.878;2024-03-17T04:17:45;20.70;;;14.60;;
75506;SDS011;64086;43.220;27.878;2024-03-17T04:20:10;25.65;;;14.63;;
75506;SDS011;64086;43.220;27.878;2024-03-17T04:22:39;24.58;;;15.15;;
75506;SDS011;64086;43.220;27.878;2024-03-17T04:25:05;23.35;;;14.90;;
75506;SDS011;64086;43.220;27.878;2024-03-17T04:27:31;25.20;;;15.77;;
75506;SDS011;64086;43.220;27.878;2024-03-17T04:29:58;25.73;;;15.27;;
75506;SDS011;64086;43.220;27.878;2024-03-17T04:32:24;23.60;;;15.50;;
75506;SDS011;64086;43.220;27.878;2024-03-17T04:34:52;25.42;;;16.50;;
75506;SDS011;64086;43.220;27.878;2024-03-17T04:37:17;25.77;;;16.13;;
75506;SDS011;64086;43.220;27.878;2024-03-17T04:39:43;27.73;;;17.10;;
75506;SDS011;64086;43.220;27.878;2024-03-17T04:42:10;25.77;;;17.08;;
75506;SDS011;64086;43.220;27.878;2024-03-17T04:44:36;24.50;;;16.40;;
75506;SDS011;64086;43.220;27.878;2024-03-17T04:47:02;23.35;;;16.08;;
75506;SDS011;64086;43.220;27.878;2024-03-17T04:49:32;26.13;;;16.65;;
75506;SDS011;64086;43.220;27.878;2024-03-17T04:52:11;25.45;;;16.23;;
75506;SDS011;64086;43.220;27.878;2024-03-17T04:54:37;23.58;;;15.77;;
75506;SDS011;64086;43.220;27.878;2024-03-17T04:57:02;21.65;;;14.68;;
75506;SDS011;64086;43.220;27.878;2024-03-17T04:59:29;21.88;;;14.68;;
75506;SDS011;64086;43.220;27.878;2024-03-17T05:01:54;19.95;;;15.00;;
75506;SDS011;64086;43.220;27.878;2024-03-17T05:04:20;19.77;;;14.25;;
75506;SDS011;64086;43.220;27.878;2024-03-17T05:06:46;20.77;;;15.30;;
75506;SDS011;64086;43.220;27.878;2024-03-17T05:09:14;19.90;;;13.30;;
75506;SDS011;64086;43.220;27.878;2024-03-17T05:11:40;17.95;;;12.55;;
75506;SDS011;64086;43.220;27.878;2024-03-17T05:14:07;18.50;;;13.20;;
75506;SDS011;64086;43.220;27.878;2024-03-17T05:16:32;17.48;;;12.90;;
75506;SDS011;64086;43.220;27.878;2024-03-17T05:18:58;17.85;;;13.15;;
75506;SDS011;64086;43.220;27.878;2024-03-17T05:21:23;18.50;;;13.85;;
75506;SDS011;64086;43.220;27.878;2024-03-17T05:23:50;24.10;;;15.30;;
75506;SDS011;64086;43.220;27.878;2024-03-17T05:26:17;19.48;;;14.55;;
75506;SDS011;64086;43.220;27.878;2024-03-17T05:28:42;20.50;;;15.88;;
75506;SDS011;64086;43.220;27.878;2024-03-17T05:31:08;19.45;;;13.93;;
75506;SDS011;64086;43.220;27.878;2024-03-17T05:33:34;21.35;;;15.52;;
75506;SDS011;64086;43.220;27.878;2024-03-17T05:36:01;18.98;;;14.57;;
75506;SDS011;64086;43.220;27.878;2024-03-17T05:38:28;22.98;;;15.10;;
75506;SDS011;64086;43.220;27.878;2024-03-17T05:41:01;22.95;;;15.32;;
75506;SDS011;64086;43.220;27.878;2024-03-17T05:45:54;22.38;;;14.45;;
75506;SDS011;64086;43.220;27.878;2024-03-17T05:48:22;23.02;;;15.23;;
75506;SDS011;64086;43.220;27.878;2024-03-17T05:50:47;22.52;;;15.23;;
75506;SDS011;64086;43.220;27.878;2024-03-17T05:53:13;23.05;;;15.43;;
75506;SDS011;64086;43.220;27.878;2024-03-17T05:55:38;22.25;;;15.77;;
75506;SDS011;64086;43.220;27.878;2024-03-17T05:58:06;21.70;;;15.35;;
75506;SDS011;64086;43.220;27.878;2024-03-17T06:00:34;22.85;;;15.25;;
75506;SDS011;64086;43.220;27.878;2024-03-17T06:03:00;25.13;;;16.40;;
75506;SDS011;64086;43.220;27.878;2024-03-17T06:05:26;25.42;;;17.60;;
75506;SDS011;64086;43.220;27.878;2024-03-17T06:07:53;23.10;;;16.02;;
75506;SDS011;64086;43.220;27.878;2024-03-17T06:10:18;22.30;;;16.38;;
75506;SDS011;64086;43.220;27.878;2024-03-17T06:12:49;24.27;;;17.05;;
75506;SDS011;64086;43.220;27.878;2024-03-17T06:15:14;22.80;;;16.17;;
75506;SDS011;64086;43.220;27.878;2024-03-17T06:17:41;22.40;;;16.30;;
75506;SDS011;64086;43.220;27.878;2024-03-17T06:20:07;25.52;;;16.63;;
75506;SDS011;64086;43.220;27.878;2024-03-17T06:22:36;25.13;;;16.48;;
75506;SDS011;64086;43.220;27.878;2024-03-17T06:25:01;22.35;;;16.27;;
75506;SDS011;64086;43.220;27.878;2024-03-17T06:27:27;24.45;;;17.38;;
75506;SDS011;64086;43.220;27.878;2024-03-17T06:29:54;25.23;;;16.92;;
75506;SDS011;64086;43.220;27.878;2024-03-17T06:32:20;26.75;;;17.48;;
75506;SDS011;64086;43.220;27.878;2024-03-17T06:34:46;25.70;;;17.67;;
75506;SDS011;64086;43.220;27.878;2024-03-17T06:37:11;23.17;;;16.83;;
75506;SDS011;64086;43.220;27.878;2024-03-17T06:39:37;24.40;;;17.98;;
75506;SDS011;64086;43.220;27.878;2024-03-17T06:42:02;25.80;;;18.00;;
75506;SDS011;64086;43.220;27.878;2024-03-17T06:44:28;24.77;;;17.92;;
75506;SDS011;64086;43.220;27.878;2024-03-17T06:46:55;26.90;;;17.65;;
75506;SDS011;64086;43.220;27.878;2024-03-17T06:49:21;25.27;;;18.25;;
75506;SDS011;64086;43.220;27.878;2024-03-17T06:51:46;23.45;;;17.65;;
75506;SDS011;64086;43.220;27.878;2024-03-17T06:54:13;22.92;;;17.13;;
75506;SDS011;64086;43.220;27.878;2024-03-17T06:56:39;21.67;;;17.00;;
75506;SDS011;64086;43.220;27.878;2024-03-17T06:59:05;22.15;;;16.85;;
75506;SDS011;64086;43.220;27.878;2024-03-17T07:01:30;26.48;;;18.27;;
75506;SDS011;64086;43.220;27.878;2024-03-17T07:03:56;21.25;;;16.83;;
75506;SDS011;64086;43.220;27.878;2024-03-17T07:06:21;22.77;;;15.77;;
75506;SDS011;64086;43.220;27.878;2024-03-17T07:08:47;23.60;;;17.00;;
75506;SDS011;64086;43.220;27.878;2024-03-17T07:11:12;20.65;;;16.25;;
75506;SDS011;64086;43.220;27.878;2024-03-17T07:13:38;20.20;;;15.68;;
75506;SDS011;64086;43.220;27.878;2024-03-17T07:16:04;20.02;;;16.20;;
75506;SDS011;64086;43.220;27.878;2024-03-17T07:18:31;19.50;;;16.58;;
75506;SDS011;64086;43.220;27.878;2024-03-17T07:21:01;21.05;;;17.55;;
75506;SDS011;64086;43.220;27.878;2024-03-17T07:23:30;25.05;;;19.08;;
75506;SDS011;64086;43.220;27.878;2024-03-17T07:25:57;25.30;;;20.23;;
75506;SDS011;64086;43.220;27.878;2024-03-17T07:28:24;25.20;;;21.85;;
75506;SDS011;64086;43.220;27.878;2024-03-17T07:30:51;24.63;;;22.00;;
75506;SDS011;64086;43.220;27.878;2024-03-17T07:33:21;23.77;;;21.20;;
75506;SDS011;64086;43.220;27.878;2024-03-17T07:35:50;27.23;;;24.42;;
75506;SDS011;64086;43.220;27.878;2024-03-17T07:38:17;26.08;;;23.55;;
75506;SDS011;64086;43.220;27.878;2024-03-17T07:40:44;31.40;;;28.30;;
75506;SDS011;64086;43.220;27.878;2024-03-17T07:43:11;33.25;;;30.13;;
75506;SDS011;64086;43.220;27.878;2024-03-17T07:45:37;35.63;;;32.22;;
75506;SDS011;64086;43.220;27.878;2024-03-17T07:48:03;38.10;;;34.40;;
75506;SDS011;64086;43.220;27.878;2024-03-17T07:50:28;39.38;;;35.65;;
75506;SDS011;64086;43.220;27.878;2024-03-17T07:52:54;39.50;;;35.75;;
75506;SDS011;64086;43.220;27.878;2024-03-17T07:55:19;39.42;;;35.83;;
75506;SDS011;64086;43.220;27.878;2024-03-17T07:57:45;40.85;;;37.08;;
75506;SDS011;64086;43.220;27.878;2024-03-17T08:00:11;39.58;;;35.78;;
75506;SDS011;64086;43.220;27.878;2024-03-17T08:02:46;33.95;;;30.80;;
75506;SDS011;64086;43.220;27.878;2024-03-17T08:05:11;39.38;;;35.58;;
75506;SDS011;64086;43.220;27.878;2024-03-17T08:07:37;41.28;;;37.55;;
75506;SDS011;64086;43.220;27.878;2024-03-17T08:10:03;36.80;;;33.25;;
75506;SDS011;64086;43.220;27.878;2024-03-17T08:12:29;24.98;;;22.67;;
75506;SDS011;64086;43.220;27.878;2024-03-17T08:14:55;35.13;;;31.83;;
75506;SDS011;64086;43.220;27.878;2024-03-17T08:17:20;36.60;;;33.22;;
75506;SDS011;64086;43.220;27.878;2024-03-17T08:19:46;31.83;;;28.92;;
75506;SDS011;64086;43.220;27.878;2024-03-17T08:22:12;32.40;;;29.30;;
75506;SDS011;64086;43.220;27.878;2024-03-17T08:24:38;31.65;;;28.77;;
75506;SDS011;64086;43.220;27.878;2024-03-17T08:27:04;31.35;;;28.35;;
75506;SDS011;64086;43.220;27.878;2024-03-17T08:29:29;30.70;;;28.00;;
75506;SDS011;64086;43.220;27.878;2024-03-17T08:31:55;22.75;;;20.65;;
75506;SDS011;64086;43.220;27.878;2024-03-17T08:34:20;17.67;;;16.05;;
75506;SDS011;64086;43.220;27.878;2024-03-17T08:36:46;17.80;;;16.20;;
75506;SDS011;64086;43.220;27.878;2024-03-17T08:39:11;17.92;;;16.15;;
75506;SDS011;64086;43.220;27.878;2024-03-17T08:41:38;17.88;;;16.17;;
75506;SDS011;64086;43.220;27.878;2024-03-17T08:44:04;18.50;;;16.88;;
75506;SDS011;64086;43.220;27.878;2024-03-17T08:46:31;18.75;;;16.90;;
75506;SDS011;64086;43.220;27.878;2024-03-17T08:48:57;17.40;;;15.68;;
75506;SDS011;64086;43.220;27.878;2024-03-17T08:51:23;18.10;;;16.40;;
75506;SDS011;64086;43.220;27.878;2024-03-17T08:53:49;18.75;;;16.90;;
75506;SDS011;64086;43.220;27.878;2024-03-17T08:56:14;17.05;;;15.45;;
75506;SDS011;64086;43.220;27.878;2024-03-17T08:58:40;18.30;;;16.52;;
75506;SDS011;64086;43.220;27.878;2024-03-17T09:01:06;17.95;;;16.27;;
75506;SDS011;64086;43.220;27.878;2024-03-17T09:03:32;18.67;;;16.88;;
75506;SDS011;64086;43.220;27.878;2024-03-17T09:05:59;18.60;;;16.80;;
75506;SDS011;64086;43.220;27.878;2024-03-17T09:08:24;17.73;;;15.88;;
75506;SDS011;64086;43.220;27.878;2024-03-17T09:10:51;16.73;;;14.90;;
75506;SDS011;64086;43.220;27.878;2024-03-17T09:13:24;17.08;;;15.38;;
75506;SDS011;64086;43.220;27.878;2024-03-17T09:18:21;17.30;;;15.50;;
75506;SDS011;64086;43.220;27.878;2024-03-17T09:20:54;17.67;;;15.68;;
75506;SDS011;64086;43.220;27.878;2024-03-17T09:23:30;17.25;;;15.55;;
75506;SDS011;64086;43.220;27.878;2024-03-17T09:25:59;17.30;;;15.55;;
75506;SDS011;64086;43.220;27.878;2024-03-17T09:28:26;18.65;;;16.65;;
75506;SDS011;64086;43.220;27.878;2024-03-17T09:30:53;18.88;;;16.75;;
75506;SDS011;64086;43.220;27.878;2024-03-17T09:33:19;19.98;;;17.00;;
75506;SDS011;64086;43.220;27.878;2024-03-17T09:35:52;17.35;;;15.55;;
75506;SDS011;64086;43.220;27.878;2024-03-17T09:38:21;20.40;;;16.85;;
75506;SDS011;64086;43.220;27.878;2024-03-17T09:40:47;19.27;;;16.30;;
75506;SDS011;64086;43.220;27.878;2024-03-17T09:43:16;16.80;;;14.98;;
75506;SDS011;64086;43.220;27.878;2024-03-17T09:45:41;16.27;;;14.27;;
75506;SDS011;64086;43.220;27.878;2024-03-17T09:48:07;19.50;;;16.48;;
75506;SDS011;64086;43.220;27.878;2024-03-17T09:50:39;18.40;;;15.32;;
75506;SDS011;64086;43.220;27.878;2024-03-17T09:53:04;17.27;;;14.38;;
75506;SDS011;64086;43.220;27.878;2024-03-17T09:55:30;17.48;;;14.18;;
75506;SDS011;64086;43.220;27.878;2024-03-17T09:57:56;18.38;;;14.88;;
75506;SDS011;64086;43.220;27.878;2024-03-17T10:00:21;16.77;;;14.73;;
75506;SDS011;64086;43.220;27.878;2024-03-17T10:02:47;19.15;;;14.40;;
75506;SDS011;64086;43.220;27.878;2024-03-17T10:05:23;15.73;;;13.95;;
75506;SDS011;64086;43.220;27.878;2024-03-17T10:07:49;16.42;;;13.68;;
75506;SDS011;64086;43.220;27.878;2024-03-17T10:10:15;14.80;;;13.07;;
75506;SDS011;64086;43.220;27.878;2024-03-17T10:12:41;14.48;;;12.52;;
75506;SDS011;64086;43.220;27.878;2024-03-17T10:15:08;15.63;;;13.63;;
75506;SDS011;64086;43.220;27.878;2024-03-17T10:17:38;16.33;;;13.43;;
75506;SDS011;64086;43.220;27.878;2024-03-17T10:20:13;14.77;;;12.65;;
75506;SDS011;64086;43.220;27.878;2024-03-17T10:25:31;17.15;;;13.05;;
75506;SDS011;64086;43.220;27.878;2024-03-17T10:27:58;16.45;;;12.80;;
75506;SDS011;64086;43.220;27.878;2024-03-17T10:30:24;16.77;;;13.18;;
75506;SDS011;64086;43.220;27.878;2024-03-17T10:32:55;17.58;;;13.85;;
75506;SDS011;64086;43.220;27.878;2024-03-17T10:35:29;18.17;;;13.80;;
75506;SDS011;64086;43.220;27.878;2024-03-17T10:38:05;18.27;;;13.05;;
75506;SDS011;64086;43.220;27.878;2024-03-17T10:40:32;17.05;;;13.10;;
75506;SDS011;64086;43.220;27.878;2024-03-17T10:42:59;19.05;;;13.88;;
75506;SDS011;64086;43.220;27.878;2024-03-17T10:45:26;17.10;;;12.52;;
75506;SDS011;64086;43.220;27.878;2024-03-17T10:47:55;17.50;;;13.48;;
75506;SDS011;64086;43.220;27.878;2024-03-17T10:50:22;19.42;;;14.15;;
75506;SDS011;64086;43.220;27.878;2024-03-17T10:52:52;19.15;;;13.68;;
75506;SDS011;64086;43.220;27.878;2024-03-17T10:55:24;19.65;;;13.48;;
75506;SDS011;64086;43.220;27.878;2024-03-17T10:57:51;18.48;;;13.80;;
75506;SDS011;64086;43.220;27.878;2024-03-17T11:00:19;18.55;;;13.10;;
75506;SDS011;64086;43.220;27.878;2024-03-17T11:02:47;20.73;;;15.85;;
75506;SDS011;64086;43.220;27.878;2024-03-17T11:05:15;21.83;;;14.98;;
75506;SDS011;64086;43.220;27.878;2024-03-17T11:07:44;23.50;;;15.18;;
75506;SDS011;64086;43.220;27.878;2024-03-17T11:10:19;18.60;;;13.80;;
75506;SDS011;64086;43.220;27.878;2024-03-17T11:12:53;21.10;;;14.18;;
75506;SDS011;64086;43.220;27.878;2024-03-17T11:20:33;20.30;;;13.88;;
75506;SDS011;64086;43.220;27.878;2024-03-17T11:22:59;18.90;;;13.02;;
75506;SDS011;64086;43.220;27.878;2024-03-17T11:27:51;17.20;;;12.38;;
75506;SDS011;64086;43.220;27.878;2024-03-17T11:39:09;16.40;;;11.95;;
75506;SDS011;64086;43.220;27.878;2024-03-17T11:41:52;15.73;;;11.43;;
75506;SDS011;64086;43.220;27.878;2024-03-17T11:51:49;17.77;;;12.07;;
75506;SDS011;64086;43.220;27.878;2024-03-17T11:54:19;16.63;;;12.10;;
75506;SDS011;64086;43.220;27.878;2024-03-17T11:56:51;19.52;;;12.05;;
75506;SDS011;64086;43.220;27.878;2024-03-17T11:59:19;18.10;;;12.27;;
75506;SDS011;64086;43.220;27.878;2024-03-17T12:01:45;16.70;;;11.65;;
75506;SDS011;64086;43.220;27.878;2024-03-17T12:04:13;16.95;;;12.23;;
75506;SDS011;64086;43.220;27.878;2024-03-17T12:06:39;20.25;;;13.38;;
75506;SDS011;64086;43.220;27.878;2024-03-17T12:09:19;18.73;;;13.27;;
75506;SDS011;64086;43.220;27.878;2024-03-17T12:11:51;18.90;;;12.00;;
75506;SDS011;64086;43.220;27.878;2024-03-17T12:14:23;18.13;;;12.15;;
75506;SDS011;64086;43.220;27.878;2024-03-17T12:16:54;18.42;;;12.30;;
75506;SDS011;64086;43.220;27.878;2024-03-17T12:19:20;17.20;;;12.30;;
75506;SDS011;64086;43.220;27.878;2024-03-17T12:21:48;17.10;;;12.13;;
75506;SDS011;64086;43.220;27.878;2024-03-17T12:24:16;17.00;;;12.48;;
75506;SDS011;64086;43.220;27.878;2024-03-17T12:26:46;18.98;;;11.70;;
75506;SDS011;64086;43.220;27.878;2024-03-17T12:32:01;17.42;;;12.05;;
75506;SDS011;64086;43.220;27.878;2024-03-17T12:34:33;17.38;;;12.00;;
75506;SDS011;64086;43.220;27.878;2024-03-17T12:37:01;18.48;;;12.45;;
75506;SDS011;64086;43.220;27.878;2024-03-17T12:39:28;17.67;;;12.90;;
75506;SDS011;64086;43.220;27.878;2024-03-17T12:42:04;15.80;;;11.40;;
75506;SDS011;64086;43.220;27.878;2024-03-17T12:44:31;17.95;;;12.73;;
75506;SDS011;64086;43.220;27.878;2024-03-17T12:46:57;17.90;;;12.48;;
75506;SDS011;64086;43.220;27.878;2024-03-17T12:49:27;17.00;;;11.60;;
75506;SDS011;64086;43.220;27.878;2024-03-17T12:51:57;18.42;;;13.02;;
75506;SDS011;64086;43.220;27.878;2024-03-17T12:54:26;17.77;;;12.25;;
75506;SDS011;64086;43.220;27.878;2024-03-17T12:57:02;18.40;;;12.25;;
75506;SDS011;64086;43.220;27.878;2024-03-17T12:59:50;16.65;;;11.15;;
75506;SDS011;64086;43.220;27.878;2024-03-17T13:02:34;19.55;;;13.48;;
75506;SDS011;64086;43.220;27.878;2024-03-17T13:07:31;18.15;;;12.48;;
75506;SDS011;64086;43.220;27.878;2024-03-17T13:09:57;16.88;;;11.43;;
75506;SDS011;64086;43.220;27.878;2024-03-17T13:12:22;17.83;;;12.23;;
75506;SDS011;64086;43.220;27.878;2024-03-17T13:14:48;19.33;;;12.45;;
75506;SDS011;64086;43.220;27.878;2024-03-17T13:17:14;19.92;;;12.73;;
75506;SDS011;64086;43.220;27.878;2024-03-17T13:19:46;17.95;;;12.65;;
75506;SDS011;64086;43.220;27.878;2024-03-17T13:22:12;18.67;;;12.93;;
75506;SDS011;64086;43.220;27.878;2024-03-17T13:24:38;18.92;;;13.10;;
75506;SDS011;64086;43.220;27.878;2024-03-17T13:27:07;18.08;;;13.13;;
75506;SDS011;64086;43.220;27.878;2024-03-17T13:29:36;19.45;;;12.15;;
75506;SDS011;64086;43.220;27.878;2024-03-17T13:32:02;17.63;;;13.18;;
75506;SDS011;64086;43.220;27.878;2024-03-17T13:34:28;20.83;;;13.85;;
75506;SDS011;64086;43.220;27.878;2024-03-17T13:36:54;18.90;;;12.90;;
75506;SDS011;64086;43.220;27.878;2024-03-17T13:39:20;20.67;;;13.30;;
75506;SDS011;64086;43.220;27.878;2024-03-17T13:41:49;20.02;;;13.52;;
75506;SDS011;64086;43.220;27.878;2024-03-17T13:44:18;21.83;;;13.30;;
75506;SDS011;64086;43.220;27.878;2024-03-17T13:46:44;18.73;;;12.38;;
75506;SDS011;64086;43.220;27.878;2024-03-17T13:49:09;20.77;;;13.77;;
75506;SDS011;64086;43.220;27.878;2024-03-17T13:51:35;19.42;;;13.85;;
75506;SDS011;64086;43.220;27.878;2024-03-17T13:54:01;19.77;;;12.85;;
75506;SDS011;64086;43.220;27.878;2024-03-17T13:56:27;20.83;;;13.20;;
75506;SDS011;64086;43.220;27.878;2024-03-17T13:58:53;23.20;;;14.20;;
75506;SDS011;64086;43.220;27.878;2024-03-17T14:01:18;18.95;;;13.20;;
75506;SDS011;64086;43.220;27.878;2024-03-17T14:03:45;21.33;;;13.73;;
75506;SDS011;64086;43.220;27.878;2024-03-17T14:06:11;26.05;;;15.18;;
75506;SDS011;64086;43.220;27.878;2024-03-17T14:08:36;20.10;;;13.88;;
75506;SDS011;64086;43.220;27.878;2024-03-17T14:11:02;22.92;;;14.75;;
75506;SDS011;64086;43.220;27.878;2024-03-17T14:13:29;21.45;;;13.70;;
75506;SDS011;64086;43.220;27.878;2024-03-17T14:15:55;23.10;;;14.52;;
75506;SDS011;64086;43.220;27.878;2024-03-17T14:18:21;22.75;;;15.52;;
75506;SDS011;64086;43.220;27.878;2024-03-17T14:20:47;24.52;;;14.75;;
75506;SDS011;64086;43.220;27.878;2024-03-17T14:23:12;20.50;;;13.57;;
75506;SDS011;64086;43.220;27.878;2024-03-17T14:25:38;21.65;;;14.82;;
75506;SDS011;64086;43.220;27.878;2024-03-17T14:28:04;22.17;;;14.15;;
75506;SDS011;64086;43.220;27.878;2024-03-17T14:30:30;21.65;;;15.48;;
75506;SDS011;64086;43.220;27.878;2024-03-17T14:32:58;23.13;;;16.50;;
75506;SDS011;64086;43.220;27.878;2024-03-17T14:35:23;22.50;;;15.77;;
75506;SDS011;64086;43.220;27.878;2024-03-17T14:37:49;22.65;;;15.38;;
75506;SDS011;64086;43.220;27.878;2024-03-17T14:40:16;21.08;;;14.65;;
75506;SDS011;64086;43.220;27.878;2024-03-17T14:42:49;24.03;;;15.57;;
75506;SDS011;64086;43.220;27.878;2024-03-17T14:45:16;22.25;;;14.95;;